Flight Track Log - Related Links

Times and Time Zones

All times are in EDT time to prevent confusion due to time zone crossing. See the SWA1802 flight status page for this flight to view local times or setup timezone preferences in your user account.

Time Position Orientation Groundspeed Altitude Reporting Facility
EDT Latitude Longitude Course Direction KTS MPH feet Rate Location/Type
Tue 06:53:13 PM 41.8010 -87.7820 283° West 176 203 2,100  Level FlightAware ADS-B
Tue 06:53:19 PM 41.8010 -87.7890 270° West 196 226 2,300 1,833 Climbing FlightAware ADS-B
Tue 06:53:49 PM 41.7910 -87.8280 251° West 243 280 3,200 2,379 Climbing FlightAware ADS-B
Tue 06:54:17 PM 41.7780 -87.8630 244° Southwest 238 274 4,600 3,273 Climbing FlightAware ADS-B
Tue 06:54:44 PM 41.7620 -87.8990 239° Southwest 240 276 6,200 3,136 Climbing FlightAware ADS-B
Tue 06:55:01 PM 41.7480 -87.9130 217° Southwest 254 292 6,900 1,784 Climbing FlightAware ADS-B
Tue 06:55:21 PM 41.7260 -87.9320 213° Southwest 284 327 7,300 2,250 Climbing FlightAware ADS-B
Tue 06:55:49 PM 41.6980 -87.9650 221° Southwest 278 320 8,700 2,927 Climbing FlightAware ADS-B
Tue 06:56:02 PM 41.6920 -87.9850 248° West 272 313 9,300 2,870 Climbing FlightAware ADS-B
Tue 06:56:12 PM 41.6910 -88.0010 265° West 267 307 9,800 2,857 Climbing FlightAware ADS-B
Tue 06:56:44 PM 41.7070 -88.0460 295° West 263 303 11,300 1,865 Climbing FlightAware ADS-B
Tue 06:57:26 PM 41.7420 -88.0990 312° West 274 315 12,100 828 Climbing FlightAware ADS-B
Tue 06:57:42 PM 41.7450 -88.1260 278° West 293 337 12,100 643 Level FlightAware ADS-B
Tue 06:58:22 PM 41.7380 -88.2060 263° West 342 394 12,700 1,500 Climbing FlightAware ADS-B
Tue 06:59:02 PM 41.7270 -88.2840 259° West 354 407 14,100 2,372 Climbing FlightAware ADS-B
Tue 06:59:48 PM 41.7100 -88.3860 257° West 365 420 16,100 2,475 Climbing FlightAware ADS-B
Tue 07:00:22 PM 41.6970 -88.4640 257° West 373 429 17,400 2,400 Climbing FlightAware ADS-B
Tue 07:01:03 PM 41.6810 -88.5610 258° West 378 435 19,100 2,096 Climbing FlightAware ADS-B
Tue 07:01:45 PM 41.6650 -88.6580 258° West 394 453 20,300 1,857 Climbing FlightAware ADS-B
Tue 07:02:27 PM 41.6490 -88.7580 258° West 399 459 21,700 2,023 Climbing FlightAware ADS-B
Tue 07:03:11 PM 41.6310 -88.8660 257° West 401 461 23,200 1,829 Climbing FlightAware ADS-B
Tue 07:03:49 PM 41.6150 -88.9590 257° West 410 472 24,200 1,500 Climbing FlightAware ADS-B
Tue 07:04:35 PM 41.6000 -89.0740 260° West 416 479 25,300 1,390 Climbing FlightAware ADS-B
Tue 07:05:11 PM 41.5880 -89.1660 260° West 424 488 26,100 1,378 Climbing FlightAware ADS-B
Tue 07:05:49 PM 41.5750 -89.2600 260° West 428 493 27,000 1,683 Climbing FlightAware ADS-B
Tue 07:06:33 PM 41.5590 -89.3760 260° West 420 483 28,400 1,976 Climbing FlightAware ADS-B
Tue 07:07:11 PM 41.5450 -89.4710 259° West 409 471 29,700 2,027 Climbing FlightAware ADS-B
Tue 07:07:47 PM 41.5330 -89.5610 260° West 402 463 30,900 1,538 Climbing FlightAware ADS-B
Tue 07:08:29 PM 41.5180 -89.6620 259° West 400 460 31,700 1,143 Climbing FlightAware ADS-B
Tue 07:09:11 PM 41.5050 -89.7570 260° West 402 463 32,500 1,091 Climbing FlightAware ADS-B
Tue 07:09:57 PM 41.4890 -89.8670 259° West 402 463 33,300 1,091 Climbing FlightAware ADS-B
Tue 07:10:39 PM 41.4730 -89.9780 259° West 402 463 34,100 951 Climbing FlightAware ADS-B
Tue 07:11:19 PM 41.4590 -90.0740 259° West 404 465 34,600 711 Climbing FlightAware ADS-B
Tue 07:11:55 PM 41.4470 -90.1550 259° West 406 467 35,000 776 Climbing FlightAware ADS-B
Tue 07:12:44 PM 41.4300 -90.2710 259° West 405 466 35,700 706 Climbing FlightAware ADS-B
Tue 07:13:20 PM 41.4160 -90.3640 259° West 405 466 36,000 214 Climbing FlightAware ADS-B
Tue 07:14:08 PM 41.3990 -90.4820 259° West 404 465 36,000  Level FlightAware ADS-B
Tue 07:14:51 PM 41.3830 -90.5890 259° West 403 464 36,000  Level FlightAware ADS-B
Tue 07:15:32 PM 41.3670 -90.6940 259° West 401 461 36,000  Level FlightAware ADS-B
Tue 07:16:10 PM 41.3530 -90.7850 258° West 401 461 36,000  Level FlightAware ADS-B
Tue 07:16:54 PM 41.3370 -90.8900 259° West 401 461 36,000  Level FlightAware ADS-B
Tue 07:17:36 PM 41.3210 -90.9910 258° West 402 463 36,000  Level FlightAware ADS-B
Tue 07:18:20 PM 41.3050 -91.0980 259° West 403 464 36,000  Level FlightAware ADS-B
Tue 07:18:59 PM 41.2900 -91.1910 258° West 404 465 36,000  Level FlightAware ADS-B
Tue 07:19:37 PM 41.2760 -91.2840 259° West 404 465 36,000  Level FlightAware ADS-B
Tue 07:20:17 PM 41.2610 -91.3790 258° West 404 465 36,000  Level FlightAware ADS-B
Tue 07:20:53 PM 41.2470 -91.4680 258° West 403 464 36,000  Level FlightAware ADS-B
Tue 07:21:34 PM 41.2310 -91.5680 258° West 403 464 36,000  Level FlightAware ADS-B
Tue 07:22:15 PM 41.2170 -91.6550 258° West 403 464 36,000  Level FlightAware ADS-B
Tue 07:23:21 PM 41.1890 -91.8240 258° West 400 460 36,000  Level FlightAware ADS-B
Tue 07:24:11 PM 41.1700 -91.9460 258° West 399 459 36,000  Level FlightAware ADS-B
Tue 07:24:50 PM 41.1540 -92.0400 257° West 399 459 36,000  Level FlightAware ADS-B
Tue 07:25:32 PM 41.1390 -92.1290 257° West 399 459 36,000  Level FlightAware ADS-B
Tue 07:26:19 PM 41.1200 -92.2490 258° West 396 456 36,000  Level FlightAware ADS-B
Tue 07:27:19 PM 41.0960 -92.3920 257° West 394 453 36,000  Level FlightAware ADS-B
Tue 07:27:59 PM 41.0820 -92.4760 258° West 393 452 36,000  Level FlightAware ADS-B
Tue 07:28:35 PM 41.0660 -92.5690 257° West 392 451 36,000  Level FlightAware ADS-B
Tue 07:29:13 PM 41.0510 -92.6590 258° West 392 451 36,000  Level FlightAware ADS-B
Tue 07:30:01 PM 41.0310 -92.7710 257° West 394 453 36,000  Level FlightAware ADS-B
Tue 07:30:41 PM 41.0150 -92.8650 257° West 393 452 36,000  Level FlightAware ADS-B
Tue 07:31:25 PM 40.9980 -92.9680 258° West 394 453 36,000  Level FlightAware ADS-B
Tue 07:32:05 PM 40.9810 -93.0650 257° West 395 455 36,000  Level FlightAware ADS-B
Tue 07:32:47 PM 40.9640 -93.1630 257° West 397 457 36,000  Level FlightAware ADS-B
Tue 07:33:40 PM 40.9420 -93.2880 257° West 398 458 36,000  Level FlightAware ADS-B
Tue 07:34:43 PM 40.9170 -93.4220 256° West 399 459 36,000  Level FlightAware ADS-B
Tue 07:35:18 PM 40.9010 -93.5160 257° West 400 460 36,000  Level FlightAware ADS-B
Tue 07:36:01 PM 40.8830 -93.6200 257° West 399 459 36,000  Level FlightAware ADS-B
Tue 07:36:43 PM 40.8660 -93.7110 256° West 397 457 36,000  Level FlightAware ADS-B
Tue 07:37:31 PM 40.8480 -93.8070 256° West 397 457 36,000  Level FlightAware ADS-B
Tue 07:38:08 PM 40.8340 -93.8810 256° West 397 457 36,000  Level FlightAware ADS-B
Tue 07:38:54 PM 40.8160 -93.9730 256° West 397 457 36,000  Level FlightAware ADS-B
Tue 07:39:31 PM 40.7940 -94.1080 258° West 390 449 36,000  Level FlightAware ADS-B
Tue 07:40:15 PM 40.7740 -94.2140 256° West 389 448 36,000  Level FlightAware ADS-B
Tue 07:40:59 PM 40.7560 -94.3140 257° West 389 448 36,000  Level FlightAware ADS-B
Tue 07:41:33 PM 40.7410 -94.3910 256° West 389 448 36,000  Level FlightAware ADS-B
Tue 07:42:24 PM 40.7230 -94.4910 257° West 389 448 36,000  Level FlightAware ADS-B
Tue 07:43:00 PM 40.7090 -94.5610 255° West 389 448 36,000  Level FlightAware ADS-B
Tue 07:43:45 PM 40.6840 -94.6950 256° West 396 456 36,000  Level FlightAware ADS-B
Tue 07:44:24 PM 40.6700 -94.7720 257° West 396 456 36,000  Level FlightAware ADS-B
Tue 07:45:00 PM 40.6560 -94.8440 256° West 396 456 36,000  Level FlightAware ADS-B
Tue 07:45:45 PM 40.6300 -94.9790 256° West 401 461 36,000  Level FlightAware ADS-B
Tue 07:46:24 PM 40.6140 -95.0570 255° West 401 461 36,000  Level FlightAware ADS-B
Tue 07:47:24 PM 40.5860 -95.2040 256° West 402 463 36,000  Level FlightAware ADS-B
Tue 07:48:00 PM 40.5710 -95.2760 255° West 402 463 36,000  Level FlightAware ADS-B
Tue 07:48:48 PM 40.5520 -95.3730 256° West 402 463 36,000  Level FlightAware ADS-B
Tue 07:50:39 PM 40.4950 -95.6690 256° West 396 456 36,000  Level FlightAware ADS-B
Tue 07:51:21 PM 40.4750 -95.7670 255° West 395 455 36,000  Level FlightAware ADS-B
Tue 07:52:01 PM 40.4590 -95.8490 256° West 395 455 36,000  Level FlightAware ADS-B
Tue 07:52:45 PM 40.4400 -95.9430 255° West 394 453 36,000  Level FlightAware ADS-B
Tue 07:53:20 PM 40.4380 -95.9490 246° West 394 453 36,000  Level FlightAware ADS-B
Tue 07:54:11 PM 40.3970 -96.1540 255° West 396 456 36,000  Level FlightAware ADS-B
Tue 07:55:08 PM 40.3850 -96.2130 255° West 397 457 36,000  Level FlightAware ADS-B
Tue 07:55:41 PM 40.3540 -96.3620 255° West 399 459 36,000  Level FlightAware ADS-B
Tue 07:56:29 PM 40.3310 -96.4750 255° West 400 460 36,000  Level FlightAware ADS-B
Tue 07:57:13 PM 40.3090 -96.5820 255° West 403 464 36,000  Level FlightAware ADS-B
Tue 07:58:01 PM 40.2860 -96.6890 254° West 405 466 36,000  Level FlightAware ADS-B
Tue 07:58:34 PM 40.2710 -96.7610 255° West 405 466 36,000  Level FlightAware ADS-B
Tue 07:59:10 PM 40.2570 -96.8340 256° West 405 466 36,000  Level FlightAware ADS-B
Tue 08:00:30 PM 40.2160 -97.0240 254° West 405 466 36,000  Level FlightAware ADS-B
Tue 08:01:06 PM 40.1930 -97.1310 254° West 404 465 36,000  Level FlightAware ADS-B
Tue 08:01:54 PM 40.1710 -97.2320 254° West 404 465 36,000  Level FlightAware ADS-B
Tue 08:02:30 PM 40.1550 -97.3040 254° West 404 465 36,000  Level FlightAware ADS-B
Tue 08:03:18 PM 40.1340 -97.4000 254° West 404 465 36,000  Level FlightAware ADS-B
Tue 08:03:54 PM 40.1180 -97.4720 254° West 404 465 36,000  Level FlightAware ADS-B
Tue 08:04:30 PM 40.1020 -97.5440 254° West 404 465 36,000  Level FlightAware ADS-B
Tue 08:05:13 PM 40.0660 -97.7150 255° West 403 464 36,000  Level FlightAware ADS-B
Tue 08:05:55 PM 40.0480 -97.7970 254° West 403 464 36,000  Level FlightAware ADS-B
Tue 08:06:31 PM 40.0320 -97.8680 254° West 403 464 36,000  Level FlightAware ADS-B
Tue 08:07:19 PM 40.0110 -97.9640 254° West 403 464 36,000  Level FlightAware ADS-B
Tue 08:07:56 PM 39.9950 -98.0380 254° West 403 464 36,000  Level FlightAware ADS-B
Tue 08:08:44 PM 39.9740 -98.1330 254° West 403 464 36,000  Level FlightAware ADS-B
Tue 08:09:21 PM 39.9580 -98.2070 254° West 403 464 36,000  Level FlightAware ADS-B
Tue 08:09:57 PM 39.9420 -98.2780 254° West 403 464 36,000  Level FlightAware ADS-B
Tue 08:10:45 PM 39.9210 -98.3730 254° West 403 464 36,000  Level FlightAware ADS-B
Tue 08:11:22 PM 39.9050 -98.4470 254° West 403 464 36,000  Level FlightAware ADS-B
Tue 08:11:56 PM 39.8900 -98.5140 254° West 403 464 36,000  Level FlightAware ADS-B
Tue 08:12:44 PM 39.8690 -98.6100 254° West 403 464 36,000  Level FlightAware ADS-B
Tue 08:13:20 PM 39.8540 -98.6810 255° West 403 464 36,000  Level FlightAware ADS-B
Tue 08:14:09 PM 39.8320 -98.7780 254° West 403 464 36,000  Level FlightAware ADS-B
Tue 08:14:46 PM 39.8160 -98.8520 254° West 403 464 36,000  Level FlightAware ADS-B
Tue 08:15:44 PM 39.7356 -99.1675 254° West 406 467 36,000  Level Minneapolis Center
Tue 08:16:46 PM 39.7033 -99.3097 254° West 408 470 36,000  Level Minneapolis Center
Tue 08:17:48 PM 39.6700 -99.4506 253° West 408 470 36,000  Level Minneapolis Center
Tue 08:18:50 PM 39.6367 -99.5911 253° West 407 468 36,000  Level Minneapolis Center
Tue 08:19:52 PM 39.5969 -99.7608 253° West 408 470 36,000  Level Minneapolis Center
Tue 08:20:54 PM 39.5700 -99.8736 253° West 409 471 36,000  Level Minneapolis Center
Tue 08:21:57 PM 39.5292 -100.0408 252° West 408 470 36,000  Level Minneapolis Center
Tue 08:22:59 PM 39.4947 -100.1800 252° West 407 468 36,000  Level Minneapolis Center
Tue 08:24:26 PM 39.4439 -100.3839 252° West 400 460 36,000  Level Denver Center
Tue 08:25:28 PM 39.4117 -100.5153 252° West 401 461 36,000  Level Denver Center
Tue 08:26:30 PM 39.3728 -100.6711 252° West 406 467 36,000  Level Denver Center
Tue 08:27:32 PM 39.3400 -100.8017 252° West 402 463 36,000  Level Denver Center
Tue 08:28:34 PM 39.3003 -100.9553 252° West 403 464 36,000 339 Level Denver Center
Tue 08:29:36 PM 39.2672 -101.0872 252° West 403 464 36,700 829 Climbing Denver Center
Tue 08:30:37 PM 39.2283 -101.2436 252° West 408 470 37,700 634 Climbing Denver Center
Tue 08:31:39 PM 39.2003 -101.3531 252° West 405 466 38,000 145 Climbing Denver Center
Tue 08:32:41 PM 39.1614 -101.5069 252° West 404 465 38,000  Level Denver Center
Tue 08:33:43 PM 39.1214 -101.6589 251° West 402 463 38,000  Level Denver Center
Tue 08:34:45 PM 39.0861 -101.7911 251° West 401 461 38,000  Level Denver Center
Tue 08:35:47 PM 39.0464 -101.9447 252° West 405 466 38,000  Level Denver Center
Tue 08:36:49 PM 39.0122 -102.0750 251° West 403 464 38,000  Level Denver Center
Tue 08:37:51 PM 38.9714 -102.2258 251° West 402 463 38,000  Level Denver Center
Tue 08:38:53 PM 38.9378 -102.3561 252° West 403 464 38,000  Level Denver Center
Tue 08:39:54 PM 38.8964 -102.5072 251° West 401 461 38,000  Level Denver Center
Tue 08:40:56 PM 38.8622 -102.6353 251° West 398 458 38,000  Level Denver Center
Tue 08:41:58 PM 38.8250 -102.7744 251° West 397 457 38,000  Level Denver Center
Tue 08:43:00 PM 38.7872 -102.9089 250° West 399 459 38,000  Level Denver Center
Tue 08:44:02 PM 38.7497 -103.0461 251° West 407 468 38,000  Level Denver Center
Tue 08:50:12 PM 38.5110 -103.9030 251° West 407 468 38,000  Level FlightAware ADS-B
Tue 08:50:53 PM 38.4860 -103.9920 250° West 408 470 38,000  Level FlightAware ADS-B
Tue 08:51:38 PM 38.4610 -104.0790 250° West 408 470 38,000  Level FlightAware ADS-B
Tue 08:52:16 PM 38.4410 -104.1520 251° West 408 470 38,000  Level FlightAware ADS-B
Tue 08:52:52 PM 38.4210 -104.2210 250° West 408 470 38,000  Level FlightAware ADS-B
Tue 08:53:49 PM 38.3730 -104.3840 249° West 411 473 38,000  Level FlightAware ADS-B
Tue 08:54:26 PM 38.3520 -104.4550 249° West 411 473 38,000  Level FlightAware ADS-B
Tue 08:55:15 PM 38.3230 -104.5490 249° West 411 473 38,000  Level FlightAware ADS-B
Tue 08:55:39 PM 38.3090 -104.5950 249° West 411 473 38,000  Level FlightAware ADS-B
Tue 08:56:28 PM 38.2810 -104.6900 249° West 411 473 38,000  Level FlightAware ADS-B
Tue 08:57:04 PM 38.2600 -104.7590 249° West 411 473 38,000  Level FlightAware ADS-B
Tue 08:57:52 PM 38.2320 -104.8510 249° West 411 473 38,000  Level FlightAware ADS-B
Tue 08:58:28 PM 38.2110 -104.9200 249° West 411 473 38,000  Level FlightAware ADS-B
Tue 08:59:17 PM 38.1830 -105.0140 249° West 411 473 38,000  Level FlightAware ADS-B
Tue 08:59:53 PM 38.1620 -105.0830 249° West 411 473 38,000  Level FlightAware ADS-B
Tue 09:00:29 PM 38.1410 -105.1520 249° West 411 473 38,000  Level FlightAware ADS-B
Tue 09:01:29 PM 38.0670 -105.4250 251° West 418 481 38,000  Level FlightAware ADS-B
Tue 09:02:24 PM 38.0260 -105.5610 249° West 417 480 38,000  Level FlightAware ADS-B
Tue 09:03:00 PM 38.0020 -105.6420 249° West 415 478 38,000  Level FlightAware ADS-B
Tue 09:03:43 PM 37.9700 -105.7360 247° West 415 478 38,000  Level FlightAware ADS-B
Tue 09:04:24 PM 37.9280 -105.8200 238° Southwest 413 475 38,000  Level FlightAware ADS-B
Tue 09:05:06 PM 37.8850 -105.9070 238° Southwest 412 474 38,000  Level FlightAware ADS-B
Tue 09:05:46 PM 37.8430 -105.9900 237° Southwest 410 472 38,000  Level FlightAware ADS-B
Tue 09:06:31 PM 37.8150 -106.0780 248° West 408 470 38,000  Level FlightAware ADS-B
Tue 09:07:11 PM 37.7900 -106.1790 253° West 412 474 38,000  Level FlightAware ADS-B
Tue 09:07:47 PM 37.7700 -106.2580 252° West 411 473 38,000  Level FlightAware ADS-B
Tue 09:08:26 PM 37.7460 -106.3510 252° West 412 474 38,000  Level FlightAware ADS-B
Tue 09:09:11 PM 37.7200 -106.4530 252° West 413 475 38,000  Level FlightAware ADS-B
Tue 09:09:41 PM 37.7010 -106.5230 251° West 414 476 38,000  Level FlightAware ADS-B
Tue 09:10:28 PM 37.6740 -106.6300 252° West 416 479 38,000  Level FlightAware ADS-B
Tue 09:11:08 PM 37.6500 -106.7230 252° West 418 481 38,000  Level FlightAware ADS-B
Tue 09:11:53 PM 37.6240 -106.8210 252° West 420 483 38,000  Level FlightAware ADS-B
Tue 09:12:33 PM 37.5980 -106.9190 252° West 423 487 38,000  Level FlightAware ADS-B
Tue 09:13:14 PM 37.5720 -107.0170 252° West 422 486 38,000  Level FlightAware ADS-B
Tue 09:13:59 PM 37.5460 -107.1180 252° West 423 487 38,000  Level FlightAware ADS-B
Tue 09:14:39 PM 37.5200 -107.2150 251° West 424 488 38,000  Level FlightAware ADS-B
Tue 09:15:20 PM 37.4950 -107.3090 251° West 424 488 38,000  Level FlightAware ADS-B
Tue 09:16:05 PM 37.4660 -107.4160 251° West 422 486 38,000  Level FlightAware ADS-B
Tue 09:16:45 PM 37.4410 -107.5090 251° West 423 487 38,000  Level FlightAware ADS-B
Tue 09:17:25 PM 37.4170 -107.5980 251° West 423 487 38,000  Level FlightAware ADS-B
Tue 09:18:10 PM 37.3880 -107.7050 251° West 422 486 38,000  Level FlightAware ADS-B
Tue 09:18:45 PM 37.3660 -107.7860 251° West 421 484 38,000  Level FlightAware ADS-B
Tue 09:19:27 PM 37.3400 -107.8840 252° West 420 483 38,000  Level FlightAware ADS-B
Tue 09:20:12 PM 37.3120 -107.9850 251° West 419 482 38,000  Level FlightAware ADS-B
Tue 09:20:52 PM 37.2860 -108.0780 251° West 417 480 38,000  Level FlightAware ADS-B
Tue 09:21:29 PM 37.2630 -108.1630 251° West 417 480 38,000  Level FlightAware ADS-B
Tue 09:22:15 PM 37.2360 -108.2600 251° West 420 483 38,000  Level FlightAware ADS-B
Tue 09:23:00 PM 37.2050 -108.3710 251° West 419 482 38,000  Level FlightAware ADS-B
Tue 09:23:30 PM 37.1870 -108.4370 251° West 422 486 38,000  Level FlightAware ADS-B
Tue 09:24:15 PM 37.1610 -108.5470 254° West 423 487 38,000  Level FlightAware ADS-B
Tue 09:24:50 PM 37.1570 -108.6310 267° West 424 488 38,000  Level FlightAware ADS-B
Tue 09:25:45 PM 37.1510 -108.7610 267° West 423 487 38,000  Level FlightAware ADS-B
Tue 09:26:28 PM 37.1470 -108.8570 267° West 423 487 38,000  Level FlightAware ADS-B
Tue 09:27:11 PM 37.1430 -108.9770 268° West 424 488 38,000  Level FlightAware ADS-B
Tue 09:27:51 PM 37.1420 -109.0750 269° West 423 487 38,000  Level FlightAware ADS-B
Tue 09:28:31 PM 37.1430 -109.1690 271° West 422 486 38,000  Level FlightAware ADS-B
Tue 09:29:16 PM 37.1520 -109.2710 276° West 425 489 38,000  Level FlightAware ADS-B
Tue 09:30:00 PM 37.1750 -109.3870 284° West 428 493 38,000  Level FlightAware ADS-B
Tue 09:30:42 PM 37.1950 -109.4890 284° West 430 495 38,000  Level FlightAware ADS-B
Tue 09:31:17 PM 37.2110 -109.5740 283° West 430 495 38,000  Level FlightAware ADS-B
Tue 09:32:05 PM 37.2180 -109.6940 274° West 428 493 38,000  Level FlightAware ADS-B
Tue 09:32:47 PM 37.2240 -109.7980 274° West 428 493 38,000  Level FlightAware ADS-B
Tue 09:33:27 PM 37.2290 -109.8960 274° West 428 493 38,000  Level FlightAware ADS-B
Tue 09:34:13 PM 37.2350 -110.0100 274° West 425 489 38,000  Level FlightAware ADS-B
Tue 09:34:55 PM 37.2400 -110.1120 274° West 423 487 38,000  Level FlightAware ADS-B
Tue 09:35:35 PM 37.2450 -110.2100 274° West 420 483 38,000  Level FlightAware ADS-B
Tue 09:36:19 PM 37.2500 -110.3130 274° West 423 487 38,000  Level FlightAware ADS-B
Tue 09:36:56 PM 37.2510 -110.3980 271° West 424 488 38,000  Level FlightAware ADS-B
Tue 09:37:32 PM 37.2510 -110.4730 270° West 424 488 38,000  Level FlightAware ADS-B
Tue 09:38:08 PM 37.2510 -110.5490 270° West 424 488 38,000  Level FlightAware ADS-B
Tue 09:38:57 PM 37.2510 -110.6510 270° West 424 488 38,000  Level FlightAware ADS-B
Tue 09:39:31 PM 37.2510 -110.7230 270° West 424 488 38,000  Level FlightAware ADS-B
Tue 09:39:55 PM 37.2510 -110.7730 270° West 424 488 38,000  Level FlightAware ADS-B
Tue 09:40:22 PM 37.0500 -110.8250 192° South 421 484 38,000  Level FlightAware ADS-B
Tue 09:40:38 PM 37.0320 -110.8750 246° West 423 487 38,000  Level FlightAware ADS-B
Tue 09:41:20 PM 37.0220 -110.9770 263° West 428 493 38,000  Level FlightAware ADS-B
Tue 09:42:32 PM 37.0120 -111.1520 266° West 432 497 38,000  Level FlightAware ADS-B
Tue 09:43:18 PM 37.0020 -111.2690 264° West 433 498 38,000  Level FlightAware ADS-B
Tue 09:43:58 PM 36.9910 -111.3670 262° West 432 497 38,000  Level FlightAware ADS-B
Tue 09:44:34 PM 36.9780 -111.4570 260° West 433 498 38,000  Level FlightAware ADS-B
Tue 09:45:14 PM 36.9620 -111.5530 258° West 433 498 38,000  Level FlightAware ADS-B
Tue 09:45:52 PM 36.9470 -111.6480 259° West 433 498 38,000  Level FlightAware ADS-B
Tue 09:46:40 PM 36.9270 -111.7650 258° West 432 497 38,000  Level FlightAware ADS-B
Tue 09:47:17 PM 36.9130 -111.8520 259° West 431 496 38,000  Level FlightAware ADS-B
Tue 09:47:59 PM 36.8800 -111.9500 247° West 428 493 38,000  Level FlightAware ADS-B
Tue 09:48:44 PM 36.8330 -112.0450 238° Southwest 427 491 38,000  Level FlightAware ADS-B
Tue 09:49:22 PM 36.7930 -112.1220 237° Southwest 429 494 38,000  Level FlightAware ADS-B
Tue 09:50:00 PM 36.7530 -112.2030 238° Southwest 430 495 38,000  Level FlightAware ADS-B
Tue 09:50:43 PM 36.7080 -112.2930 238° Southwest 430 495 38,000  Level FlightAware ADS-B
Tue 09:51:20 PM 36.6680 -112.3720 238° Southwest 431 496 38,000  Level FlightAware ADS-B
Tue 09:52:00 PM 36.6260 -112.4550 238° Southwest 433 498 38,000  Level FlightAware ADS-B
Tue 09:52:45 PM 36.5790 -112.5490 238° Southwest 433 498 38,000  Level FlightAware ADS-B
Tue 09:53:24 PM 36.5370 -112.6320 238° Southwest 431 496 38,000  Level FlightAware ADS-B
Tue 09:54:08 PM 36.4910 -112.7220 238° Southwest 430 495 38,000  Level FlightAware ADS-B
Tue 09:54:48 PM 36.4470 -112.8080 238° Southwest 430 495 38,000  Level FlightAware ADS-B
Tue 09:55:30 PM 36.4030 -112.8950 238° Southwest 429 494 38,000  Level FlightAware ADS-B
Tue 09:56:14 PM 36.3560 -112.9860 237° Southwest 430 495 38,000  Level FlightAware ADS-B
Tue 09:56:50 PM 36.3170 -113.0610 237° Southwest 430 495 38,000  Level FlightAware ADS-B
Tue 09:57:30 PM 36.2750 -113.1430 238° Southwest 430 495 38,000  Level FlightAware ADS-B
Tue 09:58:10 PM 36.2310 -113.2280 237° Southwest 431 496 38,000  Level FlightAware ADS-B
Tue 09:58:55 PM 36.1840 -113.3200 238° Southwest 433 498 38,000  Level FlightAware ADS-B
Tue 09:59:36 PM 36.1390 -113.4060 237° Southwest 431 496 38,000  Level FlightAware ADS-B
Tue 10:00:44 PM 36.0860 -113.5070 237° Southwest 428 493 38,000  Level FlightAware ADS-B
Tue 10:01:21 PM 36.0440 -113.6300 247° West 428 493 38,000  Level FlightAware ADS-B
Tue 10:02:01 PM 36.0160 -113.7170 248° West 428 493 38,000  Level FlightAware ADS-B
Tue 10:02:25 PM 35.9950 -113.7750 246° West 428 493 38,000  Level FlightAware ADS-B
Tue 10:03:04 PM 35.9630 -113.8560 244° Southwest 429 494 38,000  Level FlightAware ADS-B
Tue 10:03:48 PM 35.9230 -113.9500 242° Southwest 427 491 38,000  Level FlightAware ADS-B
Tue 10:04:28 PM 35.8750 -114.0350 235° Southwest 426 490 38,000  Level FlightAware ADS-B
Tue 10:05:10 PM 35.8290 -114.1160 235° Southwest 425 489 38,000  Level FlightAware ADS-B
Tue 10:05:54 PM 35.7800 -114.2040 236° Southwest 427 491 38,000  Level FlightAware ADS-B
Tue 10:06:34 PM 35.7350 -114.2870 236° Southwest 425 489 38,000  Level FlightAware ADS-B
Tue 10:07:18 PM 35.6870 -114.3730 236° Southwest 424 488 38,000  Level FlightAware ADS-B
Tue 10:07:58 PM 35.6410 -114.4560 236° Southwest 426 490 38,000  Level FlightAware ADS-B
Tue 10:08:43 PM 35.5930 -114.5430 236° Southwest 428 493 38,000  Level FlightAware ADS-B
Tue 10:09:23 PM 35.5470 -114.6250 235° Southwest 428 493 38,000  Level FlightAware ADS-B
Tue 10:10:07 PM 35.4980 -114.7120 235° Southwest 430 495 38,000  Level FlightAware ADS-B
Tue 10:10:46 PM 35.4550 -114.7880 235° Southwest 432 497 38,000  Level FlightAware ADS-B
Tue 10:11:30 PM 35.4030 -114.8820 236° Southwest 434 499 38,000  Level FlightAware ADS-B
Tue 10:12:10 PM 35.3590 -114.9590 235° Southwest 434 499 38,000  Level FlightAware ADS-B
Tue 10:12:54 PM 35.3070 -115.0510 235° Southwest 433 498 38,000  Level FlightAware ADS-B
Tue 10:13:34 PM 35.2620 -115.1310 235° Southwest 431 496 38,000 -429 Level FlightAware ADS-B
Tue 10:14:18 PM 35.2120 -115.2190 235° Southwest 426 490 37,400 -837 Descending FlightAware ADS-B
Tue 10:15:00 PM 35.1650 -115.3020 235° Southwest 425 489 36,800 -923 Descending FlightAware ADS-B
Tue 10:15:36 PM 35.1260 -115.3700 235° Southwest 428 493 36,200 -1,026 Descending FlightAware ADS-B
Tue 10:16:16 PM 35.0780 -115.4530 235° Southwest 428 493 35,500 -975 Descending FlightAware ADS-B
Tue 10:16:56 PM 35.0340 -115.5300 235° Southwest 423 487 34,900 -1,026 Descending FlightAware ADS-B
Tue 10:17:32 PM 34.9930 -115.6010 235° Southwest 412 474 34,200 -702 Descending FlightAware ADS-B
Tue 10:18:30 PM 34.9370 -115.6990 235° Southwest 408 470 33,800 -1,020 Descending FlightAware ADS-B
Tue 10:19:12 PM 34.8860 -115.7880 235° Southwest 404 465 32,500 -1,457 Descending FlightAware ADS-B
Tue 10:19:40 PM 34.8580 -115.8360 235° Southwest 403 464 32,100 -658 Descending FlightAware ADS-B
Tue 10:20:25 PM 34.8130 -115.9150 235° Southwest 400 460 31,700 -1,034 Descending FlightAware ADS-B
Tue 10:21:07 PM 34.7650 -115.9960 234° Southwest 393 452 30,600 -1,500 Descending FlightAware ADS-B
Tue 10:21:53 PM 34.7160 -116.0800 235° Southwest 384 442 29,500 -1,357 Descending FlightAware ADS-B
Tue 10:22:31 PM 34.6760 -116.1490 235° Southwest 396 456 28,700 -1,214 Descending FlightAware ADS-B
Tue 10:23:17 PM 34.6270 -116.2320 234° Southwest 396 456 27,800 -818 Descending FlightAware ADS-B
Tue 10:23:59 PM 34.5870 -116.3000 234° Southwest 393 452 27,500 -231 Descending FlightAware ADS-B
Tue 10:24:35 PM 34.5540 -116.3550 234° Southwest 393 452 27,500 -1,784 Level FlightAware ADS-B
Tue 10:25:13 PM 34.5060 -116.4390 235° Southwest 410 472 25,300 -2,571 Descending FlightAware ADS-B
Tue 10:25:59 PM 34.4520 -116.5310 235° Southwest 419 482 23,900 -1,674 Descending FlightAware ADS-B
Tue 10:26:39 PM 34.4100 -116.6020 234° Southwest 410 472 22,900 -1,537 Descending FlightAware ADS-B
Tue 10:27:21 PM 34.3620 -116.6820 234° Southwest 409 471 21,800 -1,605 Descending FlightAware ADS-B
Tue 10:28:05 PM 34.3130 -116.7650 234° Southwest 402 463 20,600 -1,482 Descending FlightAware ADS-B
Tue 10:28:46 PM 34.2700 -116.8380 235° Southwest 399 459 19,700 -1,026 Descending FlightAware ADS-B
Tue 10:29:21 PM 34.2320 -116.9010 234° Southwest 399 459 19,300 -545 Descending FlightAware ADS-B
Tue 10:30:03 PM 34.1860 -116.9790 235° Southwest 396 456 19,000 -220 Descending FlightAware ADS-B
Tue 10:30:43 PM 34.1430 -117.0500 234° Southwest 378 435 19,000  Level FlightAware ADS-B
Tue 10:31:23 PM 34.1040 -117.1180 235° Southwest 374 430 19,000 -711 Level FlightAware ADS-B
Tue 10:31:59 PM 34.0740 -117.1840 241° Southwest 370 426 18,100 -1,800 Descending FlightAware ADS-B
Tue 10:32:43 PM 34.0460 -117.2650 247° West 362 417 16,600 -2,429 Descending FlightAware ADS-B
Tue 10:33:23 PM 34.0390 -117.3480 264° West 369 425 14,700 -2,643 Descending FlightAware ADS-B
Tue 10:34:07 PM 34.0300 -117.4380 263° West 370 426 12,900 -1,841 Descending FlightAware ADS-B
Tue 10:34:51 PM 34.0280 -117.5230 268° West 339 390 12,000 -1,317 Descending FlightAware ADS-B
Tue 10:35:29 PM 34.0280 -117.5930 270° West 316 364 11,100 -1,071 Descending FlightAware ADS-B
Tue 10:36:15 PM 34.0250 -117.6690 267° West 284 327 10,500 -1,000 Descending FlightAware ADS-B
Tue 10:36:47 PM 34.0190 -117.7180 262° West 278 320 9,800 -1,375 Descending FlightAware ADS-B
Tue 10:37:03 PM 34.0170 -117.7430 264° West 281 323 9,400 -1,364 Descending FlightAware ADS-B
Tue 10:37:31 PM 34.0130 -117.7860 264° West 279 321 8,800 -1,286 Descending FlightAware ADS-B
Tue 10:37:59 PM 34.0090 -117.8300 264° West 280 322 8,200 -1,320 Descending FlightAware ADS-B
Tue 10:38:21 PM 34.0060 -117.8640 264° West 282 325 7,700 -1,304 Descending FlightAware ADS-B
Tue 10:38:45 PM 34.0020 -117.9020 263° West 281 323 7,200 -1,222 Descending FlightAware ADS-B
Tue 10:39:15 PM 33.9980 -117.9470 264° West 267 307 6,600 -1,138 Descending FlightAware ADS-B
Tue 10:39:43 PM 33.9940 -117.9880 263° West 248 285 6,100 -1,231 Descending FlightAware ADS-B
Tue 10:39:54 PM 33.9920 -118.0020 260° West 242 278 5,800 -1,200 Descending FlightAware ADS-B
Tue 10:40:23 PM 33.9880 -118.0400 263° West 226 260 5,300 -947 Descending FlightAware ADS-B
Tue 10:40:51 PM 33.9850 -118.0730 264° West 212 244 4,900 -964 Descending FlightAware ADS-B
Tue 10:41:19 PM 33.9820 -118.1060 264° West 200 230 4,400 -964 Descending FlightAware ADS-B
Tue 10:41:47 PM 33.9790 -118.1360 263° West 196 226 4,000 -750 Descending FlightAware ADS-B
Tue 10:42:15 PM 33.9760 -118.1670 263° West 195 224 3,700 -818 Descending FlightAware ADS-B
Tue 10:42:31 PM 33.9740 -118.1840 262° West 198 228 3,400 -857 Descending FlightAware ADS-B
Tue 10:42:57 PM 33.9710 -118.2120 263° West 201 231 3,100 -808 Descending FlightAware ADS-B
Tue 10:43:23 PM 33.9690 -118.2400 265° West 198 228 2,700 -840 Descending FlightAware ADS-B
Tue 10:43:47 PM 33.9660 -118.2640 261° West 185 213 2,400 -889 Descending FlightAware ADS-B
Tue 10:44:17 PM 33.9630 -118.2950 263° West 169 194 1,900 -931 Descending FlightAware ADS-B
Tue 10:44:45 PM 33.9610 -118.3160 263° West 154 177 1,500 -792 Descending FlightAware ADS-B
Tue 10:45:10 PM 33.9590 -118.3370 263° West 154 177 1,200 -750 Descending FlightAware ADS-B
Tue 10:45:33 PM 33.9560 -118.3580 260° West 141 162 900 -824 Descending FlightAware ADS-B
Tue 10:46:01 PM 33.9540 -118.3800 264° West 140 161 500 -609 Descending FlightAware ADS-B
Tue 10:46:42 PM 33.9520 -118.4010 263° West 138 159 200 -261 Descending FlightAware ADS-B
Tue 10:47:10 PM 33.9500 -118.4190 262° West 138 159 200  Level FlightAware ADS-B
Tue 10:54:00 PM 33.9425 -118.4081 259° West  Level Estimated
Tue 10:55:00 PM 33.9425 -118.4081 259° West  Level Estimated

Login

Don't have an account? Register now (free) for customized features, flight alerts, and more!